createdAt,value
2019-04-14T00:02:23.264Z,96468.86
2019-04-14T00:04:55.269Z,96472.42
2019-04-14T00:07:25.855Z,96470.11
2019-04-14T00:09:56.413Z,96468.99
2019-04-14T00:12:27.314Z,96470.59
2019-04-14T00:14:57.799Z,96459.06
2019-04-14T00:17:28.432Z,96455.80
2019-04-14T00:19:59.115Z,96452.17
2019-04-14T00:22:30.992Z,96439.84
2019-04-14T00:25:02.472Z,96437.24
2019-04-14T00:27:34.476Z,96437.00
2019-04-14T00:30:07.569Z,96438.77
2019-04-14T00:32:46.624Z,96433.28
2019-04-14T00:35:25.593Z,96433.92
2019-04-14T00:38:17.420Z,96437.19
2019-04-14T00:41:07.103Z,96434.92
2019-04-14T00:44:05.780Z,96430.55
2019-04-14T00:47:02.847Z,96439.12
2019-04-14T00:49:33.221Z,96440.06
2019-04-14T00:52:03.843Z,96437.05
2019-04-14T00:54:34.640Z,96439.80
2019-04-14T00:57:05.354Z,96434.52
2019-04-14T00:59:35.900Z,96435.83
2019-04-14T01:02:07.741Z,96435.13
2019-04-14T01:04:38.343Z,96434.92
2019-04-14T01:07:09.375Z,96430.83
2019-04-14T01:09:41.184Z,96432.53
2019-04-14T01:12:12.725Z,96433.14
2019-04-14T01:14:43.450Z,96430.54
2019-04-14T01:17:13.919Z,96433.48
2019-04-14T01:19:44.417Z,96429.31
2019-04-14T01:22:14.914Z,96434.09
2019-04-14T01:24:45.389Z,96429.52
2019-04-14T01:27:16.765Z,96429.52
2019-04-14T01:29:47.408Z,96430.14
2019-04-14T01:32:18.082Z,96427.62
2019-04-14T01:34:51.118Z,96429.52
2019-04-14T01:37:20.829Z,96433.03
2019-04-14T01:39:52.512Z,96429.19
2019-04-14T01:42:23.110Z,96429.13
2019-04-14T01:44:54.620Z,96433.09
2019-04-14T01:47:25.215Z,96428.98
2019-04-14T01:49:55.827Z,96432.41
2019-04-14T01:52:36.280Z,96433.72
2019-04-14T01:55:17.668Z,96432.14
2019-04-14T01:58:14.298Z,96431.18
2019-04-14T02:01:04.113Z,96433.41
2019-04-14T02:03:34.821Z,96435.00
2019-04-14T02:06:05.372Z,96433.97
2019-04-14T02:08:35.804Z,96440.83
2019-04-14T02:11:07.755Z,96437.52
2019-04-14T02:13:38.205Z,96426.11
2019-04-14T02:16:18.753Z,96429.51
2019-04-14T02:18:40.987Z,96424.45
2019-04-14T02:21:12.726Z,96428.88
2019-04-14T02:23:43.494Z,96434.90
2019-04-14T02:26:13.974Z,96433.28
2019-04-14T02:28:44.628Z,96434.92
2019-04-14T02:31:33.043Z,96434.23
2019-04-14T02:34:21.542Z,96440.05
2019-04-14T02:36:50.458Z,96433.53
2019-04-14T02:39:21.079Z,96430.25
2019-04-14T02:42:00.215Z,96431.96
2019-04-14T02:46:53.324Z,96426.85
2019-04-14T02:49:28.917Z,96435.61
2019-04-14T02:52:00.086Z,96422.20
2019-04-14T02:54:51.853Z,96431.73
2019-04-14T02:59:39.133Z,96435.50
2019-04-14T03:02:27.467Z,96432.16
2019-04-14T03:04:42.894Z,96434.39
2019-04-14T03:07:15.628Z,96437.67
2019-04-14T03:09:47.010Z,96440.91
2019-04-14T03:12:22.380Z,96435.49
2019-04-14T03:20:20.541Z,96428.30
2019-04-14T03:22:51.782Z,96438.89
2019-04-14T03:25:22.637Z,96434.63
2019-04-14T03:28:19.527Z,96434.97
2019-04-14T03:31:26.008Z,96429.77
2019-04-14T03:36:44.246Z,96425.48
2019-04-14T03:41:17.528Z,96431.81
2019-04-14T03:46:25.439Z,96436.91
2019-04-14T03:56:49.297Z,96436.27
2019-04-14T03:59:19.861Z,96431.45
2019-04-14T04:01:52.115Z,96427.96
2019-04-14T04:04:22.855Z,96433.58
2019-04-14T04:06:53.360Z,96433.33
2019-04-14T04:09:30.076Z,96433.67
2019-04-14T04:12:00.617Z,96432.45
2019-04-14T04:14:31.326Z,96437.95
2019-04-14T04:17:29.862Z,96434.63
2019-04-14T04:20:17.864Z,96442.42
2019-04-14T04:23:14.173Z,96440.36
2019-04-14T04:25:59.658Z,96437.59
2019-04-14T04:29:07.149Z,96440.45
2019-04-14T04:32:03.499Z,96442.56
2019-04-14T04:34:42.359Z,96454.53
2019-04-14T04:37:30.636Z,96450.47
2019-04-14T04:40:11.660Z,96456.41
2019-04-14T04:42:42.041Z,96462.97
2019-04-14T04:45:13.458Z,96467.73
2019-04-14T04:47:44.800Z,96471.37
2019-04-14T04:50:15.393Z,96469.23
2019-04-14T04:52:45.803Z,96471.04
2019-04-14T04:55:16.232Z,96472.11
2019-04-14T04:57:46.670Z,96478.07
2019-04-14T05:00:17.867Z,96484.16
2019-04-14T05:02:48.506Z,96478.32
2019-04-14T05:06:05.399Z,96476.46
2019-04-14T05:08:37.078Z,96482.70
2019-04-14T05:11:20.684Z,96488.52
2019-04-14T05:13:51.470Z,96485.02
2019-04-14T05:16:22.019Z,96492.22
2019-04-14T05:18:53.045Z,96489.36
2019-04-14T05:21:23.562Z,96490.34
2019-04-14T05:23:53.892Z,96493.16
2019-04-14T05:26:24.481Z,96497.80
2019-04-14T05:28:54.902Z,96495.91
2019-04-14T05:31:27.767Z,96504.04
2019-04-14T05:33:57.714Z,96507.23
2019-04-14T05:36:28.271Z,96505.26
2019-04-14T05:38:58.749Z,96506.61
2019-04-14T05:41:29.090Z,96512.23
2019-04-14T05:44:01.517Z,96515.96
2019-04-14T05:46:31.746Z,96515.45
2019-04-14T05:49:02.443Z,96518.41
2019-04-14T05:51:32.921Z,96521.16
2019-04-14T05:54:03.478Z,96517.97
2019-04-14T05:56:36.108Z,96518.33
2019-04-14T05:59:06.748Z,96523.24
2019-04-14T06:01:37.257Z,96520.56
2019-04-14T06:04:07.707Z,96523.77
2019-04-14T06:06:38.016Z,96527.80
2019-04-14T06:09:09.271Z,96528.66
2019-04-14T06:11:39.704Z,96525.37
2019-04-14T06:14:10.187Z,96526.33
2019-04-14T06:16:40.671Z,96519.35
2019-04-14T06:19:11.161Z,96524.84
2019-04-14T06:21:41.600Z,96521.77
2019-04-14T06:24:12.108Z,96525.31
2019-04-14T06:26:42.555Z,96522.91
2019-04-14T06:29:13.048Z,96528.22
2019-04-14T06:31:56.984Z,96523.08
2019-04-14T06:34:43.137Z,96520.45
2019-04-14T06:37:19.036Z,96519.87
2019-04-14T06:39:51.065Z,96527.81
2019-04-14T06:42:21.464Z,96526.17
2019-04-14T06:44:51.918Z,96526.02
2019-04-14T06:47:22.342Z,96524.17
2019-04-14T06:49:52.771Z,96525.55
2019-04-14T06:52:23.211Z,96522.67
2019-04-14T06:54:53.635Z,96519.03
2019-04-14T06:57:24.034Z,96523.97
2019-04-14T06:59:54.343Z,96524.95
2019-04-14T07:02:24.928Z,96525.95
2019-04-14T07:04:55.452Z,96525.95
2019-04-14T07:07:25.833Z,96524.16
2019-04-14T07:09:56.349Z,96529.05
2019-04-14T07:12:26.806Z,96538.67
2019-04-14T07:14:57.258Z,96537.36
2019-04-14T07:17:27.680Z,96534.91
2019-04-14T07:20:02.372Z,96534.41
2019-04-14T07:22:30.128Z,96535.06
2019-04-14T07:25:00.552Z,96527.53
2019-04-14T07:27:30.878Z,96533.36
2019-04-14T07:30:10.151Z,96535.66
2019-04-14T07:33:08.504Z,96539.55
2019-04-14T07:36:04.046Z,96543.55
2019-04-14T07:38:40.756Z,96547.45
2019-04-14T07:41:26.096Z,96541.66
2019-04-14T07:44:05.258Z,96545.88
2019-04-14T07:47:03.513Z,96545.25
2019-04-14T07:49:51.594Z,96543.36
2019-04-14T07:52:34.913Z,96546.71
2019-04-14T07:55:22.751Z,96538.27
2019-04-14T07:58:30.194Z,96538.75
2019-04-14T08:01:22.103Z,96535.84
2019-04-14T08:04:09.838Z,96543.45
2019-04-14T08:06:40.553Z,96543.98
2019-04-14T08:09:11.011Z,96544.94
2019-04-14T08:11:41.496Z,96542.95
2019-04-14T08:14:11.940Z,96536.98
2019-04-14T08:16:42.380Z,96539.88
2019-04-14T08:19:13.184Z,96543.07
2019-04-14T08:21:43.731Z,96534.81
2019-04-14T08:24:14.238Z,96533.80
2019-04-14T08:26:44.722Z,96535.71
2019-04-14T08:29:15.380Z,96535.88
2019-04-14T08:31:45.899Z,96541.10
2019-04-14T08:34:16.331Z,96540.66
2019-04-14T08:36:46.851Z,96542.38
2019-04-14T08:39:17.268Z,96540.98
2019-04-14T08:42:09.398Z,96536.26
2019-04-14T08:44:47.760Z,96534.27
2019-04-14T08:47:42.966Z,96542.48
2019-04-14T08:50:38.895Z,96545.30
2019-04-14T08:53:22.472Z,96538.22
2019-04-14T08:56:27.217Z,96545.19
2019-04-14T08:59:15.389Z,96544.77
2019-04-14T09:02:01.715Z,96534.71
2019-04-14T09:04:56.991Z,96537.89
2019-04-14T09:07:31.443Z,96534.34
2019-04-14T09:10:12.078Z,96539.56
2019-04-14T09:12:43.115Z,96527.88
2019-04-14T09:15:13.568Z,96542.44
2019-04-14T09:17:43.958Z,96528.32
2019-04-14T09:20:14.481Z,96524.80
2019-04-14T09:22:44.948Z,96531.59
2019-04-14T09:25:15.474Z,96529.44
2019-04-14T09:27:45.907Z,96524.10
2019-04-14T09:30:17.030Z,96522.81
2019-04-14T09:32:47.533Z,96526.61
2019-04-14T09:35:18.008Z,96519.47
2019-04-14T09:37:48.484Z,96512.64
2019-04-14T09:40:18.867Z,96518.41
2019-04-14T09:42:49.296Z,96522.14
2019-04-14T09:45:19.755Z,96524.27
2019-04-14T09:47:51.790Z,96515.44
2019-04-14T09:50:22.343Z,96523.09
2019-04-14T09:52:52.720Z,96524.49
2019-04-14T09:55:23.648Z,96517.47
2019-04-14T09:57:54.605Z,96519.31
2019-04-14T10:00:25.081Z,96518.98
2019-04-14T10:02:55.432Z,96525.15
2019-04-14T10:05:25.912Z,96519.93
2019-04-14T10:07:56.357Z,96519.64
2019-04-14T10:10:26.823Z,96520.84
2019-04-14T10:12:57.267Z,96522.80
2019-04-14T10:15:27.794Z,96518.62
2019-04-14T10:17:58.294Z,96517.17
2019-04-14T10:20:28.765Z,96523.38
2019-04-14T10:22:59.285Z,96532.96
2019-04-14T10:25:29.737Z,96522.03
2019-04-14T10:28:00.141Z,96520.98
2019-04-14T10:30:30.667Z,96517.95
2019-04-14T10:33:01.152Z,96513.59
2019-04-14T10:35:31.699Z,96516.66
2019-04-14T10:38:02.212Z,96517.65
2019-04-14T10:40:32.877Z,96515.64
2019-04-14T10:43:03.320Z,96508.84
2019-04-14T10:45:33.655Z,96509.94
2019-04-14T10:48:04.134Z,96505.86
2019-04-14T10:50:35.517Z,96502.80
2019-04-14T10:53:05.982Z,96508.22
2019-04-14T10:55:36.606Z,96504.59
2019-04-14T10:58:07.110Z,96501.63
2019-04-14T11:00:37.789Z,96500.38
2019-04-14T11:03:08.233Z,96489.85
2019-04-14T11:05:49.892Z,96495.03
2019-04-14T11:08:20.476Z,96497.98
2019-04-14T11:10:51.011Z,96493.48
2019-04-14T11:13:21.540Z,96488.95
2019-04-14T11:15:52.015Z,96495.07
2019-04-14T11:18:22.538Z,96491.36
2019-04-14T11:20:52.988Z,96497.34
2019-04-14T11:23:23.420Z,96498.96
2019-04-14T11:25:53.870Z,96497.03
2019-04-14T11:28:24.379Z,96487.75
2019-04-14T11:30:54.907Z,96495.06
2019-04-14T11:33:37.165Z,96491.86
2019-04-14T11:36:18.120Z,96497.41
2019-04-14T11:38:56.690Z,96500.92
2019-04-14T11:41:27.264Z,96506.27
2019-04-14T11:43:57.607Z,96509.19
2019-04-14T11:46:28.243Z,96512.98
2019-04-14T11:48:58.666Z,96520.55
2019-04-14T11:51:29.261Z,96508.72
2019-04-14T11:53:59.631Z,96509.44
2019-04-14T11:56:30.159Z,96525.94
2019-04-14T11:59:00.637Z,96528.17
2019-04-14T12:01:52.797Z,96529.01
2019-04-14T12:04:35.746Z,96536.58
2019-04-14T12:07:12.680Z,96536.38
2019-04-14T12:10:01.025Z,96541.36
2019-04-14T12:12:31.500Z,96540.64
2019-04-14T12:15:01.935Z,96545.27
2019-04-14T12:17:32.468Z,96544.59
2019-04-14T12:20:02.951Z,96546.39
2019-04-14T12:22:33.373Z,96538.03
2019-04-14T12:25:03.865Z,96549.30
2019-04-14T12:27:34.240Z,96542.83
2019-04-14T12:30:06.674Z,96552.52
2019-04-14T12:32:37.222Z,96545.81
2019-04-14T12:35:07.920Z,96552.90
2019-04-14T12:37:38.316Z,96550.27
2019-04-14T12:40:10.303Z,96545.73
2019-04-14T12:42:59.930Z,96554.20
2019-04-14T12:45:58.489Z,96547.20
2019-04-14T12:48:38.633Z,96551.41
2019-04-14T12:51:22.181Z,96549.73
2019-04-14T12:53:52.692Z,96559.56
2019-04-14T12:56:25.985Z,96559.08
2019-04-14T12:59:18.106Z,96553.89
2019-04-14T13:02:16.817Z,96558.41
2019-04-14T13:04:47.271Z,96566.01
2019-04-14T13:07:17.757Z,96558.80
2019-04-14T13:09:48.165Z,96561.80
2019-04-14T13:12:18.700Z,96558.88
2019-04-14T13:14:49.107Z,96563.64
2019-04-14T13:17:19.553Z,96557.94
2019-04-14T13:19:50.277Z,96563.57
2019-04-14T13:22:32.941Z,96562.00
2019-04-14T13:24:52.949Z,96557.33
2019-04-14T13:27:23.426Z,96550.40
2019-04-14T13:29:53.894Z,96554.86
2019-04-14T13:32:35.366Z,96555.92
2019-04-14T13:34:56.822Z,96560.11
2019-04-14T13:37:27.266Z,96556.58
2019-04-14T13:39:57.809Z,96557.80
2019-04-14T13:42:28.304Z,96560.84
2019-04-14T13:44:58.695Z,96559.30
2019-04-14T13:47:29.150Z,96562.45
2019-04-14T13:49:59.474Z,96560.30
2019-04-14T13:52:31.098Z,96557.36
2019-04-14T13:55:01.870Z,96564.47
2019-04-14T13:57:32.286Z,96566.97
2019-04-14T14:00:02.823Z,96567.76
2019-04-14T14:02:33.322Z,96569.59
2019-04-14T14:05:03.815Z,96566.23
2019-04-14T14:07:34.216Z,96563.75
2019-04-14T14:10:05.303Z,96561.53
2019-04-14T14:12:57.683Z,96562.87
2019-04-14T14:15:39.971Z,96568.53
2019-04-14T14:18:22.441Z,96564.88
2019-04-14T14:21:14.975Z,96567.01
2019-04-14T14:24:03.293Z,96570.16
2019-04-14T14:26:34.869Z,96570.27
2019-04-14T14:29:05.596Z,96570.25
2019-04-14T14:31:36.078Z,96574.45
2019-04-14T14:34:06.592Z,96581.55
2019-04-14T14:36:36.928Z,96579.02
2019-04-14T14:39:10.378Z,96577.66
2019-04-14T14:41:40.754Z,96580.81
2019-04-14T14:44:11.204Z,96583.59
2019-04-14T14:46:48.060Z,96571.94
2019-04-14T14:49:25.925Z,96571.99
2019-04-14T14:52:00.911Z,96572.59
2019-04-14T14:54:31.349Z,96571.66
2019-04-14T14:57:01.836Z,96568.59
2019-04-14T14:59:32.285Z,96568.38
2019-04-14T15:02:02.807Z,96575.95
2019-04-14T15:04:33.233Z,96568.80
2019-04-14T15:07:03.688Z,96578.98
2019-04-14T15:09:34.227Z,96575.88
2019-04-14T15:12:04.678Z,96582.56
2019-04-14T15:14:35.153Z,96586.30
2019-04-14T15:17:08.245Z,96592.80
2019-04-14T15:19:37.885Z,96589.98
2019-04-14T15:22:08.376Z,96594.84
2019-04-14T15:24:38.949Z,96594.14
2019-04-14T15:27:09.363Z,96595.88
2019-04-14T15:29:39.809Z,96604.56
2019-04-14T15:32:10.260Z,96605.94
2019-04-14T15:34:40.741Z,96608.27
2019-04-14T15:37:11.166Z,96608.22
2019-04-14T15:39:41.513Z,96606.45
2019-04-14T15:42:12.080Z,96608.34
2019-04-14T15:44:42.569Z,96608.08
2019-04-14T15:47:13.059Z,96615.64
2019-04-14T15:49:43.556Z,96613.02
2019-04-14T15:52:14.128Z,96617.98
2019-04-14T15:54:44.593Z,96617.03
2019-04-14T15:57:25.250Z,96612.46
2019-04-14T16:00:11.432Z,96614.16
2019-04-14T16:02:57.548Z,96622.00
2019-04-14T16:05:32.462Z,96612.20
2019-04-14T16:08:07.606Z,96618.55
2019-04-14T16:11:00.000Z,96624.64
2019-04-14T16:14:01.703Z,96626.23
2019-04-14T16:16:49.538Z,96633.88
2019-04-14T16:19:27.760Z,96641.59
2019-04-14T16:21:58.244Z,96635.88
2019-04-14T16:24:28.842Z,96638.05
2019-04-14T16:27:18.026Z,96643.23
2019-04-14T16:29:59.936Z,96642.59
2019-04-14T16:32:48.244Z,96637.81
2019-04-14T16:35:22.025Z,96633.58
2019-04-14T16:37:52.401Z,96641.69
2019-04-14T16:40:22.945Z,96639.87
2019-04-14T16:42:53.441Z,96649.88
2019-04-14T16:45:24.026Z,96648.83
2019-04-14T16:47:54.548Z,96648.80
2019-04-14T16:50:25.111Z,96644.22
2019-04-14T16:53:00.108Z,96650.14
2019-04-14T16:55:38.849Z,96654.52
2019-04-14T16:58:33.997Z,96653.28
2019-04-14T17:01:18.491Z,96661.17
2019-04-14T17:03:48.900Z,96665.44
2019-04-14T17:06:19.421Z,96668.19
2019-04-14T17:08:49.866Z,96674.55
2019-04-14T17:11:20.320Z,96672.41
2019-04-14T17:14:09.730Z,96668.96
2019-04-14T17:16:56.655Z,96677.47
2019-04-14T17:19:45.016Z,96675.45
2019-04-14T17:22:43.689Z,96673.50
2019-04-14T17:25:21.422Z,96680.33
2019-04-14T17:28:10.759Z,96687.19
2019-04-14T17:31:01.376Z,96683.92
2019-04-14T17:33:42.938Z,96691.44
2019-04-14T17:36:30.976Z,96694.74
2019-04-14T17:39:31.699Z,96704.61
2019-04-14T17:42:07.736Z,96706.14
2019-04-14T17:45:12.314Z,96712.84
2019-04-14T17:48:16.767Z,96713.17
2019-04-14T17:51:03.334Z,96715.80
2019-04-14T17:53:45.210Z,96716.78
2019-04-14T17:56:25.430Z,96722.67
2019-04-14T17:59:07.448Z,96728.95
2019-04-14T18:01:45.916Z,96731.28
2019-04-14T18:04:22.658Z,96738.16
2019-04-14T18:07:06.952Z,96741.11
2019-04-14T18:09:49.223Z,96744.88
2019-04-14T18:12:29.106Z,96746.70
2019-04-14T18:15:11.746Z,96755.27
2019-04-14T18:17:59.111Z,96765.74
2019-04-14T18:20:36.838Z,96774.25
2019-04-14T18:23:07.316Z,96778.19
2019-04-14T18:25:37.772Z,96782.27
2019-04-14T18:28:25.806Z,96790.36
2019-04-14T18:31:01.572Z,96793.02
2019-04-14T18:33:50.814Z,96792.52
2019-04-14T18:36:30.722Z,96794.48
2019-04-14T18:39:20.057Z,96804.16
2019-04-14T18:41:56.017Z,96808.78
2019-04-14T18:44:54.123Z,96815.30
2019-04-14T18:47:36.077Z,96811.70
2019-04-14T18:50:24.250Z,96816.61
2019-04-14T18:53:00.254Z,96824.13
2019-04-14T18:55:45.050Z,96832.31
2019-04-14T18:58:40.164Z,96833.97
2019-04-14T19:01:14.508Z,96840.02
2019-04-14T19:03:45.027Z,96843.13
2019-04-14T19:06:15.594Z,96845.42
2019-04-14T19:08:46.033Z,96841.84
2019-04-14T19:11:47.665Z,96848.06
2019-04-14T19:14:30.487Z,96853.31
2019-04-14T19:17:04.936Z,96855.59
2019-04-14T19:19:36.946Z,96861.95
2019-04-14T19:22:07.437Z,96865.22
2019-04-14T19:24:37.928Z,96866.21
2019-04-14T19:27:08.625Z,96872.26
2019-04-14T19:29:38.930Z,96872.93
2019-04-14T19:32:09.422Z,96872.62
2019-04-14T19:34:39.967Z,96879.16
2019-04-14T19:37:10.411Z,96879.84
2019-04-14T19:39:40.980Z,96884.59
2019-04-14T19:42:11.534Z,96877.41
2019-04-14T19:44:42.037Z,96884.12
2019-04-14T19:47:12.383Z,96885.09
2019-04-14T19:49:42.782Z,96888.20
2019-04-14T19:52:13.319Z,96884.77
2019-04-14T19:54:43.735Z,96893.26
2019-04-14T19:57:14.114Z,96900.79
2019-04-14T19:59:44.580Z,96897.86
2019-04-14T20:02:15.056Z,96901.44
2019-04-14T20:04:45.454Z,96899.97
2019-04-14T20:07:16.579Z,96904.38
2019-04-14T20:09:47.277Z,96907.02
2019-04-14T20:12:17.816Z,96908.32
2019-04-14T20:14:48.260Z,96910.42
2019-04-14T20:17:36.472Z,96917.32
2019-04-14T20:20:21.917Z,96911.92
2019-04-14T20:23:09.894Z,96919.45
2019-04-14T20:26:02.014Z,96927.28
2019-04-14T20:28:46.568Z,96923.84
2019-04-14T20:31:35.617Z,96923.70
2019-04-14T20:34:06.171Z,96926.30
2019-04-14T20:36:36.580Z,96931.88
2019-04-14T20:39:12.870Z,96938.08
2019-04-14T20:41:43.324Z,96934.14
2019-04-14T20:44:14.033Z,96941.83
2019-04-14T20:46:44.491Z,96935.44
2019-04-14T20:49:14.899Z,96939.02
2019-04-14T20:51:45.263Z,96934.27
2019-04-14T20:54:15.687Z,96934.91
2019-04-14T20:56:46.098Z,96943.91
2019-04-14T20:59:16.562Z,96949.77
2019-04-14T21:01:59.206Z,96948.50
2019-04-14T21:04:50.588Z,96954.39
2019-04-14T21:07:58.399Z,96954.52
2019-04-14T21:10:47.819Z,96953.70
2019-04-14T21:13:36.130Z,96957.47
2019-04-14T21:16:14.290Z,96959.77
2019-04-14T21:18:48.881Z,96968.10
2019-04-14T21:21:36.946Z,96964.52
2019-04-14T21:24:12.080Z,96965.46
2019-04-14T21:27:08.818Z,96970.38
2019-04-14T21:29:46.645Z,96968.74
2019-04-14T21:32:23.885Z,96969.23
2019-04-14T21:35:01.024Z,96970.02
2019-04-14T21:37:59.249Z,96981.59
2019-04-14T21:40:47.217Z,96981.38
2019-04-14T21:43:17.808Z,96984.88
2019-04-14T21:45:48.375Z,96981.53
2019-04-14T21:48:18.823Z,96984.28
2019-04-14T21:50:49.346Z,96992.27
2019-04-14T21:53:19.792Z,96991.95
2019-04-14T21:55:50.233Z,96992.58
2019-04-14T21:58:29.146Z,96995.28
2019-04-14T22:01:53.466Z,96991.14
2019-04-14T22:04:52.601Z,96991.14
2019-04-14T22:07:30.079Z,96986.84
2019-04-14T22:10:06.954Z,96992.78
2019-04-14T22:12:37.453Z,96989.24
2019-04-14T22:15:07.951Z,97004.81
2019-04-14T22:17:39.932Z,96996.84
2019-04-14T22:20:10.446Z,96997.01
2019-04-14T22:22:41.010Z,97003.35
2019-04-14T22:25:11.444Z,97005.45
2019-04-14T22:27:41.922Z,97008.88
2019-04-14T22:30:12.738Z,97008.88
2019-04-14T22:32:43.089Z,97007.97
2019-04-14T22:35:13.584Z,97010.89
2019-04-14T22:37:43.971Z,97014.55
2019-04-14T22:40:15.043Z,97012.45
2019-04-14T22:42:45.618Z,97016.55
2019-04-14T22:45:16.170Z,97021.12
2019-04-14T22:47:46.615Z,97010.30
2019-04-14T22:50:16.987Z,97023.25
2019-04-14T22:52:47.654Z,97017.75
2019-04-14T22:55:18.079Z,97021.55
2019-04-14T22:57:48.567Z,97019.78
2019-04-14T23:00:34.486Z,97017.08
2019-04-14T23:03:14.775Z,97013.50
2019-04-14T23:05:57.307Z,97021.61
2019-04-14T23:08:41.110Z,97020.84
2019-04-14T23:11:29.313Z,97025.88
2019-04-14T23:14:17.307Z,97022.33
2019-04-14T23:17:05.434Z,97025.03
2019-04-14T23:19:52.220Z,97030.05
2019-04-14T23:22:33.557Z,97034.50
2019-04-14T23:25:04.090Z,97034.19
2019-04-14T23:27:34.451Z,97030.84
2019-04-14T23:30:04.946Z,97036.63
2019-04-14T23:32:35.478Z,97033.42
2019-04-14T23:35:06.765Z,97035.41
2019-04-14T23:37:40.300Z,97028.23
2019-04-14T23:40:11.166Z,97031.84
2019-04-14T23:42:41.625Z,97035.44
2019-04-14T23:45:12.211Z,97034.81
2019-04-14T23:47:42.764Z,97033.03
2019-04-14T23:50:13.294Z,97038.66
2019-04-14T23:52:43.928Z,97038.98
2019-04-14T23:55:14.448Z,97043.34
2019-04-14T23:57:45.376Z,97041.59
